createdAt,value
2022-08-17T00:02:26.557Z,13.55
2022-08-17T00:04:54.513Z,13.10
2022-08-17T00:07:21.331Z,13.52
2022-08-17T00:09:51.166Z,13.65
2022-08-17T00:12:43.684Z,14.43
2022-08-17T00:15:05.815Z,14.48
2022-08-17T00:17:37.417Z,14.48
2022-08-17T00:20:04.729Z,14.55
2022-08-17T00:22:36.298Z,14.35
2022-08-17T00:25:13.499Z,13.95
2022-08-17T00:27:40.276Z,13.88
2022-08-17T00:30:11.357Z,13.93
2022-08-17T00:33:12.227Z,13.73
2022-08-17T00:35:29.824Z,14.88
2022-08-17T00:37:56.608Z,14.48
2022-08-17T00:40:24.822Z,13.82
2022-08-17T00:42:52.568Z,13.88
2022-08-17T00:45:20.435Z,14.55
2022-08-17T00:47:47.376Z,14.02
2022-08-17T00:50:15.284Z,13.63
2022-08-17T00:52:50.311Z,13.63
2022-08-17T00:55:17.285Z,14.35
2022-08-17T00:57:50.341Z,13.52
2022-08-17T01:00:29.795Z,14.38
2022-08-17T01:03:00.594Z,13.98
2022-08-17T01:05:28.549Z,13.98
2022-08-17T01:07:55.835Z,14.10
2022-08-17T01:11:00.145Z,14.40
2022-08-17T01:13:17.589Z,14.50
2022-08-17T01:16:07.443Z,14.15
2022-08-17T01:18:34.439Z,14.18
2022-08-17T01:21:04.909Z,13.90
2022-08-17T01:23:31.642Z,14.07
2022-08-17T01:25:59.849Z,13.68
2022-08-17T01:28:52.618Z,14.15
2022-08-17T01:31:19.518Z,14.25
2022-08-17T01:33:48.948Z,13.75
2022-08-17T01:36:15.706Z,13.77
2022-08-17T01:38:44.972Z,14.50
2022-08-17T01:41:13.808Z,13.70
2022-08-17T01:43:55.790Z,13.43
2022-08-17T01:46:25.065Z,14.15
2022-08-17T01:48:51.969Z,13.98
2022-08-17T01:51:19.214Z,14.32
2022-08-17T01:53:51.834Z,13.55
2022-08-17T01:56:20.778Z,14.05
2022-08-17T01:58:50.141Z,14.40
2022-08-17T02:01:19.050Z,14.63
2022-08-17T02:03:59.387Z,15.90
2022-08-17T02:06:52.959Z,15.25
2022-08-17T02:09:23.263Z,14.52
2022-08-17T02:11:52.321Z,14.35
2022-08-17T02:14:20.993Z,14.70
2022-08-17T02:16:47.736Z,14.10
2022-08-17T02:19:15.913Z,13.95
2022-08-17T02:21:46.920Z,14.90
2022-08-17T02:24:59.384Z,14.70
2022-08-17T02:27:06.175Z,13.95
2022-08-17T02:29:32.971Z,14.13
2022-08-17T02:32:01.875Z,13.60
2022-08-17T02:34:28.973Z,13.82
2022-08-17T02:36:55.895Z,13.00
2022-08-17T02:39:24.982Z,12.88
2022-08-17T02:42:00.870Z,13.23
2022-08-17T02:44:39.405Z,13.90
2022-08-17T02:47:07.426Z,14.32
2022-08-17T02:49:34.202Z,13.32
2022-08-17T02:52:03.275Z,12.95
2022-08-17T02:54:41.303Z,13.27
2022-08-17T02:57:11.384Z,13.63
2022-08-17T02:59:38.964Z,13.25
2022-08-17T03:02:09.847Z,14.32
2022-08-17T03:04:41.344Z,13.05
2022-08-17T03:07:10.553Z,13.07
2022-08-17T03:09:37.842Z,13.63
2022-08-17T03:12:06.439Z,14.50
2022-08-17T03:14:41.113Z,13.52
2022-08-17T03:17:09.949Z,13.40
2022-08-17T03:19:37.459Z,13.27
2022-08-17T03:22:35.473Z,14.30
2022-08-17T03:24:58.609Z,14.00
2022-08-17T03:27:25.571Z,13.80
2022-08-17T03:29:52.368Z,14.20
2022-08-17T03:32:20.825Z,14.40
2022-08-17T03:34:50.278Z,13.85
2022-08-17T03:37:17.134Z,13.98
2022-08-17T03:39:43.974Z,14.57
2022-08-17T03:42:32.448Z,13.38
2022-08-17T03:45:02.320Z,14.00
2022-08-17T03:47:47.554Z,14.48
2022-08-17T03:50:35.954Z,14.02
2022-08-17T03:53:27.317Z,14.27
2022-08-17T03:56:12.718Z,15.05
2022-08-17T03:58:41.996Z,14.80
2022-08-17T04:01:11.261Z,14.88
2022-08-17T04:03:38.096Z,14.48
2022-08-17T04:06:05.634Z,15.68
2022-08-17T04:08:34.543Z,15.15
2022-08-17T04:11:01.662Z,15.23
2022-08-17T04:13:28.480Z,14.50
2022-08-17T04:15:56.200Z,15.60
2022-08-17T04:18:23.137Z,14.70
2022-08-17T04:20:49.914Z,13.68
2022-08-17T04:23:20.328Z,14.82
2022-08-17T04:25:51.281Z,14.75
2022-08-17T04:28:18.695Z,13.93
2022-08-17T04:30:45.772Z,13.50
2022-08-17T04:33:17.444Z,13.65
2022-08-17T04:35:51.404Z,14.68
2022-08-17T04:38:22.744Z,14.40
2022-08-17T04:41:08.097Z,13.75
2022-08-17T04:43:35.199Z,13.20
2022-08-17T04:46:09.107Z,12.77
2022-08-17T04:48:49.381Z,12.02
2022-08-17T04:51:22.168Z,12.30
2022-08-17T04:53:54.461Z,12.35
2022-08-17T04:56:21.794Z,12.55
2022-08-17T04:58:52.093Z,11.73
2022-08-17T05:01:24.741Z,12.10
2022-08-17T05:03:56.213Z,10.98
2022-08-17T05:06:23.224Z,11.13
2022-08-17T05:08:50.042Z,10.10
2022-08-17T05:11:16.840Z,10.52
2022-08-17T05:13:44.784Z,10.18
2022-08-17T05:16:11.636Z,10.63
2022-08-17T05:18:39.172Z,10.23
2022-08-17T05:21:06.742Z,10.73
2022-08-17T05:23:42.650Z,10.48
2022-08-17T05:26:25.819Z,11.13
2022-08-17T05:28:59.691Z,11.50
2022-08-17T05:31:29.634Z,10.73
2022-08-17T05:33:58.657Z,10.98
2022-08-17T05:36:41.831Z,10.35
2022-08-17T05:39:16.462Z,11.27
2022-08-17T05:41:45.688Z,11.77
2022-08-17T05:44:17.239Z,10.45
2022-08-17T05:46:45.785Z,11.10
2022-08-17T05:49:14.659Z,10.80
2022-08-17T05:52:40.796Z,9.63
2022-08-17T05:55:18.240Z,9.52
2022-08-17T05:58:06.812Z,10.20
2022-08-17T06:01:08.453Z,10.68
2022-08-17T06:03:51.358Z,10.18
2022-08-17T06:06:31.811Z,10.05
2022-08-17T06:09:12.046Z,9.75
2022-08-17T06:12:03.597Z,9.57
2022-08-17T06:14:52.023Z,8.93
2022-08-17T06:17:20.155Z,9.73
2022-08-17T06:19:56.106Z,9.20
2022-08-17T06:22:27.374Z,8.60
2022-08-17T06:24:56.785Z,8.48
2022-08-17T06:27:53.910Z,8.90
2022-08-17T06:30:25.642Z,8.35
2022-08-17T06:32:53.043Z,9.27
2022-08-17T06:35:31.938Z,9.15
2022-08-17T06:38:10.464Z,8.63
2022-08-17T06:41:22.876Z,8.45
2022-08-17T06:44:43.300Z,8.57
2022-08-17T06:47:13.644Z,7.43
2022-08-17T06:49:46.217Z,7.38
2022-08-17T06:52:46.690Z,8.73
2022-08-17T06:55:17.821Z,8.05
2022-08-17T06:57:49.642Z,7.93
2022-08-17T07:00:24.914Z,7.65
2022-08-17T07:03:25.633Z,7.50
2022-08-17T07:06:03.664Z,7.57
2022-08-17T07:09:03.452Z,7.32
2022-08-17T07:11:41.815Z,7.75
2022-08-17T07:14:41.022Z,8.05
2022-08-17T07:17:14.996Z,8.10
2022-08-17T07:19:45.442Z,7.88
2022-08-17T07:22:27.982Z,8.35
2022-08-17T07:24:57.350Z,8.18
2022-08-17T07:27:28.000Z,7.72
2022-08-17T07:29:56.692Z,7.70
2022-08-17T07:32:27.384Z,8.52
2022-08-17T07:35:23.142Z,8.68
2022-08-17T07:38:25.701Z,8.05
2022-08-17T07:41:02.660Z,8.35
2022-08-17T07:43:37.110Z,7.70
2022-08-17T07:46:23.287Z,7.40
2022-08-17T07:49:03.488Z,7.47
2022-08-17T07:51:32.399Z,7.30
2022-08-17T07:54:14.578Z,7.78
2022-08-17T07:56:44.501Z,7.20
2022-08-17T07:59:16.313Z,6.95
2022-08-17T08:02:06.800Z,7.45
2022-08-17T08:04:59.542Z,7.50
2022-08-17T08:07:31.807Z,7.07
2022-08-17T08:10:06.918Z,6.85
2022-08-17T08:12:40.577Z,7.63
2022-08-17T08:15:20.658Z,7.80
2022-08-17T08:17:52.890Z,7.43
2022-08-17T08:20:51.261Z,7.40
2022-08-17T08:23:46.454Z,7.78
2022-08-17T08:26:37.381Z,6.97
2022-08-17T08:29:31.421Z,7.07
2022-08-17T08:32:39.432Z,6.97
2022-08-17T08:35:39.010Z,6.97
2022-08-17T08:38:25.512Z,6.22
2022-08-17T08:41:30.509Z,7.10
2022-08-17T08:44:08.470Z,7.20
2022-08-17T08:46:47.090Z,7.03
2022-08-17T08:49:59.513Z,6.78
2022-08-17T08:52:48.662Z,6.57
2022-08-17T08:55:48.289Z,7.10
2022-08-17T08:58:32.198Z,6.80
2022-08-17T09:01:16.714Z,6.60
2022-08-17T09:03:53.956Z,7.00
2022-08-17T09:06:39.000Z,6.40
2022-08-17T09:09:41.507Z,6.35
2022-08-17T09:12:25.465Z,6.63
2022-08-17T09:15:01.273Z,6.40
2022-08-17T09:17:43.404Z,6.55
2022-08-17T09:20:27.202Z,6.40
2022-08-17T09:23:07.969Z,6.43
2022-08-17T09:25:49.882Z,6.65
2022-08-17T09:28:21.100Z,6.38
2022-08-17T09:30:50.714Z,6.55
2022-08-17T09:33:27.034Z,6.47
2022-08-17T09:36:00.267Z,6.72
2022-08-17T09:38:35.485Z,7.10
2022-08-17T09:41:30.271Z,7.43
2022-08-17T09:44:12.116Z,6.40
2022-08-17T09:46:55.393Z,7.45
2022-08-17T09:49:31.179Z,6.75
2022-08-17T09:52:10.114Z,7.20
2022-08-17T09:54:40.378Z,6.97
2022-08-17T09:57:32.889Z,6.10
2022-08-17T10:00:16.277Z,6.18
2022-08-17T10:03:09.735Z,5.80
2022-08-17T10:06:09.314Z,6.63
2022-08-17T10:08:52.506Z,7.43
2022-08-17T10:11:33.425Z,6.47
2022-08-17T10:14:37.054Z,6.30
2022-08-17T10:17:03.234Z,6.50
2022-08-17T10:20:01.253Z,6.80
2022-08-17T10:23:01.118Z,7.20
2022-08-17T10:25:55.144Z,6.82
2022-08-17T10:28:27.375Z,6.45
2022-08-17T10:31:23.438Z,6.47
2022-08-17T10:33:51.479Z,6.72
2022-08-17T10:36:23.459Z,6.70
2022-08-17T10:38:58.327Z,7.30
2022-08-17T10:41:32.574Z,6.75
2022-08-17T10:44:38.519Z,6.72
2022-08-17T10:47:15.124Z,6.38
2022-08-17T10:49:49.693Z,7.22
2022-08-17T10:52:21.851Z,6.60
2022-08-17T10:54:51.592Z,6.90
2022-08-17T10:57:34.817Z,6.28
2022-08-17T11:00:05.969Z,6.35
2022-08-17T11:02:41.696Z,6.90
2022-08-17T11:05:32.650Z,6.07
2022-08-17T11:08:23.546Z,6.97
2022-08-17T11:11:08.402Z,6.35
2022-08-17T11:13:52.264Z,6.55
2022-08-17T11:16:40.108Z,6.95
2022-08-17T11:19:11.466Z,6.60
2022-08-17T11:22:36.789Z,6.80
2022-08-17T11:25:16.069Z,7.32
2022-08-17T11:27:43.059Z,6.57
2022-08-17T11:30:17.407Z,6.45
2022-08-17T11:32:54.483Z,5.88
2022-08-17T11:35:21.665Z,6.00
2022-08-17T11:38:02.437Z,6.38
2022-08-17T11:40:50.368Z,6.40
2022-08-17T11:43:25.365Z,7.07
2022-08-17T11:45:58.726Z,7.03
2022-08-17T11:49:11.258Z,6.20
2022-08-17T11:52:11.105Z,7.13
2022-08-17T11:54:41.488Z,6.30
2022-08-17T11:57:26.613Z,6.47
2022-08-17T11:59:58.667Z,6.43
2022-08-17T12:02:31.692Z,6.75
2022-08-17T12:05:14.393Z,6.50
2022-08-17T12:07:46.801Z,9.18
2022-08-17T12:10:16.193Z,7.00
2022-08-17T12:12:44.196Z,6.50
2022-08-17T12:15:21.707Z,6.75
2022-08-17T12:17:53.310Z,6.53
2022-08-17T12:20:27.851Z,6.25
2022-08-17T12:23:17.683Z,6.07
2022-08-17T12:25:56.859Z,6.78
2022-08-17T12:28:28.475Z,6.07
2022-08-17T12:30:59.908Z,6.28
2022-08-17T12:33:29.119Z,5.88
2022-08-17T12:36:03.461Z,5.95
2022-08-17T12:38:34.776Z,5.68
2022-08-17T12:41:22.701Z,6.05
2022-08-17T12:44:03.339Z,6.10
2022-08-17T12:46:35.036Z,6.22
2022-08-17T12:49:13.444Z,5.70
2022-08-17T12:51:46.671Z,6.57
2022-08-17T12:54:31.419Z,6.20
2022-08-17T12:57:02.177Z,6.03
2022-08-17T12:59:29.750Z,6.00
2022-08-17T13:01:57.731Z,6.50
2022-08-17T13:04:24.629Z,6.55
2022-08-17T13:06:58.196Z,6.40
2022-08-17T13:09:36.070Z,6.15
2022-08-17T13:12:07.926Z,6.35
2022-08-17T13:14:35.382Z,6.45
2022-08-17T13:17:11.097Z,6.40
2022-08-17T13:19:50.081Z,6.65
2022-08-17T13:22:16.985Z,5.90
2022-08-17T13:25:15.001Z,6.30
2022-08-17T13:27:41.892Z,6.35
2022-08-17T13:30:12.021Z,5.97
2022-08-17T13:32:44.061Z,6.68
2022-08-17T13:35:39.278Z,6.78
2022-08-17T13:38:12.581Z,6.32
2022-08-17T13:40:42.811Z,6.55
2022-08-17T13:43:10.172Z,6.53
2022-08-17T13:45:50.630Z,6.72
2022-08-17T13:48:28.405Z,5.80
2022-08-17T13:50:55.167Z,6.05
2022-08-17T13:53:40.121Z,6.13
2022-08-17T13:56:38.385Z,5.90
2022-08-17T13:59:11.369Z,6.60
2022-08-17T14:01:42.483Z,6.57
2022-08-17T14:04:14.162Z,7.07
2022-08-17T14:06:56.212Z,7.03
2022-08-17T14:09:37.199Z,6.30
2022-08-17T14:12:06.355Z,6.40
2022-08-17T14:14:35.193Z,6.35
2022-08-17T14:17:04.137Z,5.93
2022-08-17T14:19:33.383Z,6.75
2022-08-17T14:22:00.609Z,7.07
2022-08-17T14:24:29.398Z,6.68
2022-08-17T14:26:56.386Z,6.40
2022-08-17T14:29:26.463Z,6.85
2022-08-17T14:31:54.723Z,6.80
2022-08-17T14:34:22.816Z,6.40
2022-08-17T14:36:52.195Z,6.60
2022-08-17T14:39:19.226Z,6.22
2022-08-17T14:41:46.007Z,6.68
2022-08-17T14:44:15.350Z,6.05
2022-08-17T14:46:43.494Z,6.70
2022-08-17T14:49:11.398Z,7.28
2022-08-17T14:51:39.703Z,6.93
2022-08-17T14:54:11.407Z,7.00
2022-08-17T14:56:38.743Z,6.18
2022-08-17T14:59:05.574Z,6.40
2022-08-17T15:01:36.963Z,7.03
2022-08-17T15:04:06.352Z,6.85
2022-08-17T15:06:35.289Z,7.35
2022-08-17T15:09:02.392Z,6.65
2022-08-17T15:11:29.388Z,6.38
2022-08-17T15:13:56.156Z,7.07
2022-08-17T15:16:25.116Z,7.43
2022-08-17T15:18:52.750Z,6.72
2022-08-17T15:21:20.182Z,6.55
2022-08-17T15:23:48.220Z,6.93
2022-08-17T15:26:15.137Z,7.00
2022-08-17T15:28:42.001Z,7.00
2022-08-17T15:31:08.806Z,6.63
2022-08-17T15:33:35.776Z,6.75
2022-08-17T15:36:07.976Z,6.55
2022-08-17T15:38:39.737Z,7.03
2022-08-17T15:41:07.600Z,7.00
2022-08-17T15:43:34.666Z,6.45
2022-08-17T15:46:12.568Z,6.60
2022-08-17T15:48:43.015Z,6.60
2022-08-17T15:51:10.626Z,7.20
2022-08-17T15:53:37.745Z,6.22
2022-08-17T15:56:05.374Z,6.90
2022-08-17T15:58:35.437Z,7.03
2022-08-17T16:01:14.843Z,6.55
2022-08-17T16:04:04.223Z,6.60
2022-08-17T16:06:33.630Z,6.38
2022-08-17T16:09:00.922Z,6.60
2022-08-17T16:11:27.684Z,6.70
2022-08-17T16:13:54.859Z,6.60
2022-08-17T16:16:23.748Z,6.43
2022-08-17T16:18:56.324Z,6.60
2022-08-17T16:21:42.433Z,6.95
2022-08-17T16:24:13.344Z,6.93
2022-08-17T16:26:41.816Z,6.85
2022-08-17T16:29:10.969Z,6.95
2022-08-17T16:31:37.883Z,8.00
2022-08-17T16:34:17.835Z,7.75
2022-08-17T16:36:51.846Z,7.30
2022-08-17T16:39:24.767Z,7.85
2022-08-17T16:41:51.625Z,8.15
2022-08-17T16:44:19.673Z,7.97
2022-08-17T16:46:46.823Z,7.97
2022-08-17T16:49:35.244Z,7.57
2022-08-17T16:52:07.845Z,7.93
2022-08-17T16:54:39.387Z,7.90
2022-08-17T16:57:08.680Z,7.88
2022-08-17T16:59:40.869Z,8.00
2022-08-17T17:02:11.551Z,7.75
2022-08-17T17:05:00.136Z,9.13
2022-08-17T17:07:51.750Z,8.63
2022-08-17T17:10:37.741Z,8.32
2022-08-17T17:13:08.499Z,9.40
2022-08-17T17:16:01.541Z,8.82
2022-08-17T17:18:51.700Z,8.73
2022-08-17T17:21:20.022Z,8.80
2022-08-17T17:23:59.765Z,8.98
2022-08-17T17:26:55.200Z,8.77
2022-08-17T17:29:47.763Z,8.40
2022-08-17T17:32:27.585Z,8.80
2022-08-17T17:35:00.308Z,8.50
2022-08-17T17:37:32.363Z,8.25
2022-08-17T17:40:25.683Z,9.20
2022-08-17T17:42:53.706Z,8.65
2022-08-17T17:45:23.349Z,9.70
2022-08-17T17:47:53.054Z,8.82
2022-08-17T17:50:20.844Z,8.85
2022-08-17T17:53:02.166Z,9.38
2022-08-17T17:55:46.476Z,8.43
2022-08-17T17:58:33.369Z,9.13
2022-08-17T18:01:21.577Z,8.73
2022-08-17T18:04:20.400Z,9.40
2022-08-17T18:07:19.828Z,9.23
2022-08-17T18:10:05.055Z,9.52
2022-08-17T18:12:51.285Z,9.10
2022-08-17T18:15:23.225Z,9.20
2022-08-17T18:18:08.979Z,9.75
2022-08-17T18:20:53.470Z,9.70
2022-08-17T18:23:27.745Z,9.95
2022-08-17T18:26:01.367Z,10.45
2022-08-17T18:28:29.641Z,10.18
2022-08-17T18:31:09.669Z,10.00
2022-08-17T18:33:38.115Z,10.05
2022-08-17T18:36:05.993Z,9.73
2022-08-17T18:38:38.479Z,10.10
2022-08-17T18:41:21.143Z,11.38
2022-08-17T18:44:16.467Z,11.98
2022-08-17T18:46:45.500Z,11.98
2022-08-17T18:49:30.291Z,11.98
2022-08-17T18:52:32.453Z,11.90
2022-08-17T18:55:16.561Z,11.80
2022-08-17T18:57:57.405Z,12.27
2022-08-17T19:00:30.402Z,11.52
2022-08-17T19:03:03.613Z,12.00
2022-08-17T19:05:37.258Z,12.38
2022-08-17T19:08:28.924Z,11.73
2022-08-17T19:11:07.274Z,11.70
2022-08-17T19:13:41.676Z,11.80
2022-08-17T19:16:17.668Z,11.60
2022-08-17T19:18:56.780Z,11.40
2022-08-17T19:21:23.537Z,11.05
2022-08-17T19:24:11.021Z,11.50
2022-08-17T19:26:54.369Z,11.30
2022-08-17T19:29:32.768Z,11.65
2022-08-17T19:32:01.199Z,11.77
2022-08-17T19:34:34.024Z,11.45
2022-08-17T19:37:21.715Z,11.80
2022-08-17T19:39:56.661Z,12.88
2022-08-17T19:42:31.182Z,12.02
2022-08-17T19:45:17.185Z,12.18
2022-08-17T19:47:56.574Z,12.45
2022-08-17T19:50:41.505Z,12.30
2022-08-17T19:53:47.771Z,13.20
2022-08-17T19:56:20.680Z,13.02
2022-08-17T19:59:21.131Z,11.73
2022-08-17T20:01:49.402Z,12.95
2022-08-17T20:04:32.360Z,12.50
2022-08-17T20:07:15.366Z,13.00
2022-08-17T20:09:49.706Z,13.00
2022-08-17T20:12:38.049Z,13.18
2022-08-17T20:15:10.857Z,12.65
2022-08-17T20:17:42.676Z,12.50
2022-08-17T20:20:19.896Z,13.10
2022-08-17T20:22:55.141Z,12.95
2022-08-17T20:25:35.353Z,13.45
2022-08-17T20:28:06.743Z,12.63
2022-08-17T20:30:42.795Z,12.68
2022-08-17T20:33:26.228Z,12.63
2022-08-17T20:36:11.416Z,13.43
2022-08-17T20:39:02.178Z,13.50
2022-08-17T20:41:29.978Z,13.05
2022-08-17T20:43:56.776Z,13.60
2022-08-17T20:46:36.696Z,12.80
2022-08-17T20:49:35.463Z,13.30
2022-08-17T20:52:08.989Z,12.98
2022-08-17T20:54:55.199Z,13.25
2022-08-17T20:57:37.517Z,14.00
2022-08-17T21:00:14.995Z,13.55
2022-08-17T21:02:45.716Z,13.07
2022-08-17T21:05:32.455Z,13.68
2022-08-17T21:08:13.118Z,13.32
2022-08-17T21:10:40.402Z,13.45
2022-08-17T21:13:16.045Z,13.10
2022-08-17T21:16:07.891Z,13.35
2022-08-17T21:18:45.302Z,14.00
2022-08-17T21:21:27.230Z,13.70
2022-08-17T21:24:02.880Z,14.00
2022-08-17T21:26:50.517Z,13.20
2022-08-17T21:29:31.086Z,12.57
2022-08-17T21:31:59.728Z,13.30
2022-08-17T21:34:37.117Z,12.95
2022-08-17T21:37:22.356Z,12.65
2022-08-17T21:39:59.213Z,12.50
2022-08-17T21:42:31.327Z,12.50
2022-08-17T21:45:19.090Z,13.05
2022-08-17T21:48:06.784Z,13.38
2022-08-17T21:50:34.312Z,13.55
2022-08-17T21:53:02.365Z,12.80
2022-08-17T21:55:32.764Z,13.38
2022-08-17T21:58:13.518Z,12.60
2022-08-17T22:00:43.321Z,13.18
2022-08-17T22:03:12.211Z,13.40
2022-08-17T22:05:39.545Z,13.77
2022-08-17T22:08:24.595Z,14.05
2022-08-17T22:10:51.746Z,13.30
2022-08-17T22:13:18.475Z,14.35
2022-08-17T22:16:28.164Z,13.75
2022-08-17T22:18:58.122Z,14.98
2022-08-17T22:21:25.395Z,14.48
2022-08-17T22:24:04.041Z,14.50
2022-08-17T22:27:02.044Z,14.98
2022-08-17T22:29:46.758Z,14.88
2022-08-17T22:32:43.296Z,14.10
2022-08-17T22:35:32.592Z,14.35
2022-08-17T22:38:18.255Z,17.08
2022-08-17T22:40:55.943Z,13.93
2022-08-17T22:43:26.208Z,14.45
2022-08-17T22:45:55.160Z,14.63
2022-08-17T22:48:27.285Z,14.38
2022-08-17T22:51:12.725Z,13.73
2022-08-17T22:54:08.269Z,14.32
2022-08-17T22:56:53.549Z,14.93
2022-08-17T22:59:44.003Z,14.68
2022-08-17T23:02:20.156Z,15.10
2022-08-17T23:04:53.058Z,14.80
2022-08-17T23:07:20.620Z,14.57
2022-08-17T23:09:47.648Z,14.85
2022-08-17T23:12:18.612Z,14.95
2022-08-17T23:14:51.548Z,15.75
2022-08-17T23:17:22.957Z,15.07
2022-08-17T23:19:49.724Z,15.85
2022-08-17T23:22:16.493Z,16.35
2022-08-17T23:24:45.465Z,16.45
2022-08-17T23:27:12.311Z,15.98
2022-08-17T23:29:42.268Z,15.10
2022-08-17T23:32:15.212Z,14.88
2022-08-17T23:34:42.866Z,14.77
2022-08-17T23:37:10.115Z,14.88
2022-08-17T23:39:37.293Z,17.00
2022-08-17T23:42:07.914Z,15.30
2022-08-17T23:44:35.989Z,15.57
2022-08-17T23:47:03.707Z,15.35
2022-08-17T23:49:31.357Z,14.70
2022-08-17T23:52:01.710Z,15.25
2022-08-17T23:54:34.907Z,14.77
2022-08-17T23:57:02.225Z,15.23
2022-08-17T23:59:29.338Z,14.70
